Time;durP1;ratioP1;P1;durP2;ratioP2;P2;SDS_P1;SDS_P2;PMS_P1;PMS_P2;Temp;Humidity;BMP_temperature;BMP_pressure;BME280_temperature;BME280_humidity;BME280_pressure;Samples;Min_cycle;Max_cycle;Signal;HPM_P1;HPM_P2
2022/11/18 00:01:56;;;;;;;;;;;;;;;9.24;100.00;99401.88;5036573;28;19944;-88
2022/11/18 00:04:21;;;;;;;;;;;;;;;9.23;100.00;99403.63;5054969;28;19922;-88
2022/11/18 00:06:47;;;;;;;;;;;;;;;9.22;100.00;99401.09;5054892;28;19920;-88
2022/11/18 00:09:12;;;;;;;;;;;;;;;9.22;100.00;99407.19;5038475;28;20116;-88
2022/11/18 00:14:22;;;;;;;;;;;;;;;9.21;100.00;99420.34;5056518;28;19923;-88
2022/11/18 00:16:47;;;;;;;;;;;;;;;9.20;100.00;99418.66;5056540;28;19963;-88
2022/11/18 00:19:13;;;;;;;;;;;;;;;9.18;100.00;99421.34;5055974;28;19909;-88
2022/11/18 00:21:38;;;;;;;;;;;;;;;9.18;100.00;99429.19;5056479;28;19917;-88
2022/11/18 00:24:04;;;;;;;;;;;;;;;9.17;100.00;99431.91;5056567;28;19951;-88
2022/11/18 00:26:29;;;;;;;;;;;;;;;9.17;100.00;99431.91;5057179;28;20204;-88
2022/11/18 00:28:54;;;;;;;;;;;;;;;9.16;100.00;99431.03;5056565;28;20159;-88
2022/11/18 00:31:19;;;;;;;;;;;;;;;9.16;100.00;99443.25;5056556;28;20002;-88
2022/11/18 00:33:45;;;;;;;;;;;;;;;9.15;100.00;99449.41;5056693;28;20158;-88
2022/11/18 00:36:11;;;;;;;;;;;;;;;9.15;100.00;99446.78;5055096;28;20009;-88
2022/11/18 00:38:36;;;;;;;;;;;;;;;9.14;100.00;99445.13;5055160;28;19916;-88
2022/11/18 00:41:03;;;;;;;;;;;;;;;9.13;100.00;99444.28;5038540;28;19924;-88
2022/11/18 00:43:28;;;;;;;;;;;;;;;9.13;100.00;99459.09;5056757;28;19990;-88
2022/11/18 00:45:53;;;;;;;;;;;;;;;9.13;100.00;99464.31;5056769;28;19909;-88
2022/11/18 00:48:20;;;;;;;;;;;;;;;9.12;100.00;99460.88;5056561;28;20147;-88
2022/11/18 00:50:47;;;;;;;;;;;;;;;9.12;100.00;99458.28;5055369;28;19974;-88
2022/11/18 00:53:12;;;;;;;;;;;;;;;9.12;100.00;99463.50;5055977;28;20216;-88
2022/11/18 00:55:38;;;;;;;;;;;;;;;9.10;100.00;99467.13;5060281;28;19921;-88
2022/11/18 00:58:03;;;;;;;;;;;;;;;9.12;100.00;99478.34;5060572;28;19943;-88
2022/11/18 01:00:28;;;;;;;;;;;;;;;9.10;100.00;99481.03;5060058;28;20277;-88
2022/11/18 01:02:53;;;;;;;;;;;;;;;9.10;100.00;99480.19;5060365;28;19983;-88
2022/11/18 01:05:19;;;;;;;;;;;;;;;9.09;100.00;99483.72;5041762;28;19984;-88
2022/11/18 01:07:45;;;;;;;;;;;;;;;9.08;100.00;99482.03;5042338;28;19955;-88
2022/11/18 01:10:10;;;;;;;;;;;;;;;9.08;100.00;99484.63;5060006;28;19916;-88
2022/11/18 01:13:20;;;;;;;;;;;;;;;9.07;100.00;99493.41;5060147;28;19917;-88
2022/11/18 01:15:21;;;;;;;;;;;;;;;9.06;100.00;99496.94;5055696;28;20159;-88
2022/11/18 01:17:46;;;;;;;;;;;;;;;9.06;100.00;99499.56;5059934;28;19968;-88
2022/11/18 01:20:11;;;;;;;;;;;;;;;9.05;100.00;99503.09;5058568;28;20081;-88
2022/11/18 01:22:36;;;;;;;;;;;;;;;9.05;100.00;99509.16;5059758;28;19913;-88
2022/11/18 01:25:02;;;;;;;;;;;;;;;9.04;100.00;99515.31;5041971;28;19943;-88
2022/11/18 01:27:27;;;;;;;;;;;;;;;9.04;100.00;99520.56;5058238;28;19948;-88
2022/11/18 01:29:53;;;;;;;;;;;;;;;9.03;100.00;99524.91;5058695;28;19913;-88
2022/11/18 01:32:18;;;;;;;;;;;;;;;9.03;100.00;99521.47;5058274;28;20219;-88
2022/11/18 01:34:43;;;;;;;;;;;;;;;9.02;100.00;99527.59;5058632;28;19920;-88
2022/11/18 01:37:08;;;;;;;;;;;;;;;9.02;100.00;99530.22;5059136;28;19944;-88
2022/11/18 01:39:34;;;;;;;;;;;;;;;9.00;100.00;99527.72;5059427;28;19921;-88
2022/11/18 01:41:59;;;;;;;;;;;;;;;9.00;100.00;99529.47;5058107;28;20258;-88
2022/11/18 01:44:47;;;;;;;;;;;;;;;8.99;100.00;99533.84;5041727;28;19962;-88
2022/11/18 01:47:13;;;;;;;;;;;;;;;8.99;100.00;99538.25;5055749;28;20208;-88
2022/11/18 01:49:38;;;;;;;;;;;;;;;8.98;100.00;99536.53;5059522;28;19955;-88
2022/11/18 01:52:03;;;;;;;;;;;;;;;8.98;100.00;99544.38;5057950;28;19920;-88
2022/11/18 01:54:32;;;;;;;;;;;;;;;8.97;100.00;99545.31;5059200;28;19921;-88
2022/11/18 01:56:59;;;;;;;;;;;;;;;8.96;100.00;99549.69;5059313;28;19947;-88
2022/11/18 01:59:26;;;;;;;;;;;;;;;8.95;100.00;99545.41;5059323;28;19917;-88
2022/11/18 02:01:53;;;;;;;;;;;;;;;8.95;100.00;99544.53;5059402;28;19920;-88
2022/11/18 02:04:19;;;;;;;;;;;;;;;8.95;100.00;99541.91;5058613;28;19924;-88
2022/11/18 02:06:44;;;;;;;;;;;;;;;8.95;100.00;99548.00;5057992;28;19917;-88
2022/11/18 02:09:11;;;;;;;;;;;;;;;8.94;100.00;99546.31;5058673;28;19912;-88
2022/11/18 02:11:53;;;;;;;;;;;;;;;8.93;100.00;99557.69;5058903;28;19920;-88
2022/11/18 02:14:23;;;;;;;;;;;;;;;8.93;100.00;99556.84;5057578;28;20007;-88
2022/11/18 02:17:07;;;;;;;;;;;;;;;8.93;100.00;99565.53;5057486;28;19909;-88
2022/11/18 02:19:35;;;;;;;;;;;;;;;8.92;100.00;99558.59;5058679;28;19924;-88
2022/11/18 02:22:09;;;;;;;;;;;;;;;8.92;100.00;99566.44;5058388;28;19920;-88
2022/11/18 02:24:34;;;;;;;;;;;;;;;8.91;100.00;99577.78;5058625;28;19944;-88
2022/11/18 02:26:59;;;;;;;;;;;;;;;8.91;100.00;99576.97;5057479;28;20185;-88
2022/11/18 02:29:30;;;;;;;;;;;;;;;8.90;100.00;99572.69;5058662;28;19917;-88
2022/11/18 02:32:25;;;;;;;;;;;;;;;8.90;100.00;99591.78;5058850;28;19921;-88
2022/11/18 02:34:56;;;;;;;;;;;;;;;8.89;100.00;99587.47;5022198;28;19917;-87
2022/11/18 02:37:24;;;;;;;;;;;;;;;8.89;100.00;99590.09;5058115;28;19912;-88
2022/11/18 02:40:09;;;;;;;;;;;;;;;8.88;100.00;99593.66;5058648;28;19917;-88
2022/11/18 02:42:35;;;;;;;;;;;;;;;8.88;100.00;99590.16;5057930;28;20292;-88
2022/11/18 02:45:04;;;;;;;;;;;;;;;8.88;100.00;99595.41;5058156;28;19909;-87
2022/11/18 02:47:31;;;;;;;;;;;;;;;8.87;100.00;99594.56;5056654;28;19947;-88
2022/11/18 02:50:02;;;;;;;;;;;;;;;8.86;100.00;99600.72;5058591;28;19917;-87
2022/11/18 02:52:28;;;;;;;;;;;;;;;8.86;100.00;99598.13;5058151;28;19917;-88
2022/11/18 02:54:55;;;;;;;;;;;;;;;8.84;100.00;99599.94;5057260;28;19984;-88
2022/11/18 02:57:21;;;;;;;;;;;;;;;8.85;100.00;99601.63;5056701;28;20413;-88
2022/11/18 02:59:47;;;;;;;;;;;;;;;8.84;100.00;99599.94;5056557;28;19913;-88
2022/11/18 03:02:16;;;;;;;;;;;;;;;8.83;100.00;99598.25;5057863;28;19924;-88
2022/11/18 03:04:42;;;;;;;;;;;;;;;8.83;100.00;99603.50;5057719;28;19947;-88
2022/11/18 03:07:14;;;;;;;;;;;;;;;8.81;100.00;99595.72;5056289;28;19916;-88
2022/11/18 03:09:41;;;;;;;;;;;;;;;8.82;100.00;99604.41;5056566;28;19948;-88
2022/11/18 03:12:07;;;;;;;;;;;;;;;8.82;100.00;99599.19;5057684;28;19923;-88
2022/11/18 03:14:42;;;;;;;;;;;;;;;8.81;100.00;99597.50;5056959;28;19947;-88
2022/11/18 03:17:14;;;;;;;;;;;;;;;8.81;100.00;99613.19;5057451;28;19986;-88
2022/11/18 03:19:51;;;;;;;;;;;;;;;8.81;100.00;99610.56;5056558;28;19916;-88
2022/11/18 03:22:22;;;;;;;;;;;;;;;8.80;100.00;99611.47;5057438;28;19916;-88
2022/11/18 03:24:54;;;;;;;;;;;;;;;8.79;100.00;99612.41;5057757;28;20188;-88
2022/11/18 03:27:26;;;;;;;;;;;;;;;8.79;100.00;99617.63;5057361;28;19912;-88
2022/11/18 03:29:56;;;;;;;;;;;;;;;8.79;100.00;99620.25;5057689;28;19955;-88
2022/11/18 03:32:30;;;;;;;;;;;;;;;8.79;100.00;99622.84;5055959;28;19917;-88
2022/11/18 03:35:01;;;;;;;;;;;;;;;8.78;100.00;99629.00;5057445;28;19997;-88
2022/11/18 03:37:27;;;;;;;;;;;;;;;8.78;100.00;99624.59;5057393;28;20198;-88
2022/11/18 03:39:54;;;;;;;;;;;;;;;8.77;100.00;99633.38;5057263;28;19917;-88
2022/11/18 03:42:23;;;;;;;;;;;;;;;8.78;100.00;99626.38;5058042;28;20212;-86
2022/11/18 03:44:54;;;;;;;;;;;;;;;8.77;100.00;99627.31;5057699;28;20105;-86
2022/11/18 03:47:34;;;;;;;;;;;;;;;8.77;100.00;99619.50;5057781;28;20125;-86
2022/11/18 03:50:04;;;;;;;;;;;;;;;8.77;100.00;99635.97;5058047;28;19986;-85
2022/11/18 03:52:31;;;;;;;;;;;;;;;8.77;100.00;99641.22;5058354;28;20020;-85
2022/11/18 03:54:58;;;;;;;;;;;;;;;8.77;100.00;99637.75;5057800;28;19909;-85
2022/11/18 03:57:26;;;;;;;;;;;;;;;8.77;100.00;99640.38;5057711;28;20199;-85
2022/11/18 03:59:55;;;;;;;;;;;;;;;8.77;100.00;99648.22;5057378;28;19919;-85
2022/11/18 04:02:22;;;;;;;;;;;;;;;8.77;100.00;99651.66;5057013;28;19962;-85
2022/11/18 04:04:49;;;;;;;;;;;;;;;8.78;100.00;99658.53;5057093;28;19912;-85
2022/11/18 04:07:27;;;;;;;;;;;;;;;8.78;100.00;99652.47;5057068;28;20227;-85
2022/11/18 04:10:03;;;;;;;;;;;;;;;8.77;100.00;99661.25;5057428;28;19912;-85
2022/11/18 04:12:32;;;;;;;;;;;;;;;8.77;100.00;99663.88;5058679;28;19954;-85
2022/11/18 04:15:00;;;;;;;;;;;;;;;8.78;100.00;99665.53;5057235;28;20240;-85
2022/11/18 04:17:27;;;;;;;;;;;;;;;8.77;100.00;99669.09;5057452;28;19909;-85
2022/11/18 04:19:52;;;;;;;;;;;;;;;8.77;100.00;99669.91;5058305;28;20141;-85
2022/11/18 04:22:18;;;;;;;;;;;;;;;8.76;100.00;99673.44;5058112;28;19935;-85
2022/11/18 04:24:43;;;;;;;;;;;;;;;8.76;100.00;99683.06;5040454;28;19978;-85
2022/11/18 04:27:08;;;;;;;;;;;;;;;8.75;100.00;99682.22;5040149;28;19912;-85
2022/11/18 04:29:34;;;;;;;;;;;;;;;8.75;100.00;99687.44;5043029;28;19959;-85
2022/11/18 04:31:59;;;;;;;;;;;;;;;8.75;100.00;99686.56;5060549;28;19967;-86
2022/11/18 04:34:25;;;;;;;;;;;;;;;8.74;100.00;99696.19;5061060;28;19963;-85
2022/11/18 04:36:50;;;;;;;;;;;;;;;8.74;100.00;99696.19;5060603;28;20148;-85
2022/11/18 04:39:16;;;;;;;;;;;;;;;8.75;100.00;99699.63;5061985;28;20282;-85
2022/11/18 04:41:54;;;;;;;;;;;;;;;8.73;100.00;99699.72;5044271;28;19952;-85
2022/11/18 04:44:19;;;;;;;;;;;;;;;8.74;100.00;99706.63;5060579;28;19951;-85
2022/11/18 04:46:45;;;;;;;;;;;;;;;8.74;100.00;99721.44;5060928;28;19909;-85
2022/11/18 04:49:12;;;;;;;;;;;;;;;8.73;100.00;99712.78;5043838;28;19917;-85
2022/11/18 04:51:37;;;;;;;;;;;;;;;8.73;100.00;99718.00;5060593;28;19983;-85
2022/11/18 04:54:03;;;;;;;;;;;;;;;8.74;100.00;99722.28;5043749;28;20113;-85
2022/11/18 04:56:29;;;;;;;;;;;;;;;8.73;100.00;99725.81;5061166;28;19908;-85
2022/11/18 04:58:55;;;;;;;;;;;;;;;8.73;100.00;99730.19;5060522;28;19917;-85
2022/11/18 05:01:20;;;;;;;;;;;;;;;8.73;100.00;99727.56;5060562;28;20242;-85
2022/11/18 05:03:45;;;;;;;;;;;;;;;8.72;100.00;99737.19;5060311;28;20007;-85
2022/11/18 05:06:10;;;;;;;;;;;;;;;8.73;100.00;99740.63;5059934;28;19909;-85
2022/11/18 05:08:36;;;;;;;;;;;;;;;8.72;100.00;99731.13;5043393;28;20208;-85
2022/11/18 05:13:49;;;;;;;;;;;;;;;8.71;100.00;99750.31;5061237;28;19925;-85
2022/11/18 05:16:14;;;;;;;;;;;;;;;8.71;100.00;99752.91;5060254;28;19991;-85
2022/11/18 05:18:39;;;;;;;;;;;;;;;8.70;100.00;99752.06;5059953;28;19923;-85
2022/11/18 05:21:05;;;;;;;;;;;;;;;8.70;100.00;99757.31;5043040;28;19936;-85
2022/11/18 05:23:30;;;;;;;;;;;;;;;8.70;100.00;99754.69;5060359;28;19920;-85
2022/11/18 05:25:55;;;;;;;;;;;;;;;8.70;100.00;99757.31;5043186;28;19959;-85
2022/11/18 05:28:20;;;;;;;;;;;;;;;8.70;100.00;99764.28;5043224;28;20119;-85
2022/11/18 05:30:46;;;;;;;;;;;;;;;8.69;100.00;99760.81;5060128;28;19919;-85
2022/11/18 05:33:11;;;;;;;;;;;;;;;8.70;100.00;99756.47;5059534;28;19952;-85
2022/11/18 05:35:36;;;;;;;;;;;;;;;8.69;100.00;99765.19;5043168;28;19980;-85
2022/11/18 05:38:02;;;;;;;;;;;;;;;8.70;100.00;99766.91;5043119;28;19944;-85
2022/11/18 05:40:27;;;;;;;;;;;;;;;8.69;100.00;99765.19;5058741;28;19963;-85
2022/11/18 05:43:10;;;;;;;;;;;;;;;8.70;100.00;99774.72;5059976;28;19988;-85
2022/11/18 05:45:36;;;;;;;;;;;;;;;8.68;100.00;99779.16;5059369;28;20015;-85
2022/11/18 05:48:03;;;;;;;;;;;;;;;8.68;100.00;99773.94;5059352;28;19925;-85
2022/11/18 05:50:28;;;;;;;;;;;;;;;8.69;100.00;99778.25;5059399;28;20235;-85
2022/11/18 05:52:53;;;;;;;;;;;;;;;8.67;100.00;99778.31;5059446;28;19913;-85
2022/11/18 05:55:19;;;;;;;;;;;;;;;8.67;100.00;99778.31;5059090;28;19920;-85
2022/11/18 05:57:45;;;;;;;;;;;;;;;8.66;100.00;99779.25;5059174;28;19924;-85
2022/11/18 06:00:10;;;;;;;;;;;;;;;8.65;100.00;99780.16;5042647;28;19925;-85
2022/11/18 06:02:36;;;;;;;;;;;;;;;8.65;100.00;99791.44;5042972;28;19913;-85
2022/11/18 06:05:03;;;;;;;;;;;;;;;8.65;100.00;99786.22;5058687;28;19947;-85
2022/11/18 06:07:38;;;;;;;;;;;;;;;8.63;100.00;99785.47;5058843;28;19916;-85
2022/11/18 06:10:03;;;;;;;;;;;;;;;8.63;100.00;99793.28;5059341;28;20197;-85
2022/11/18 06:12:30;;;;;;;;;;;;;;;8.63;100.00;99797.66;5042667;28;19935;-85
2022/11/18 06:14:58;;;;;;;;;;;;;;;8.62;100.00;99804.66;5059137;28;20175;-85
2022/11/18 06:17:26;;;;;;;;;;;;;;;8.62;100.00;99806.41;5053250;28;20242;-85
2022/11/18 06:19:52;;;;;;;;;;;;;;;8.61;100.00;99802.13;5053056;28;19913;-85
2022/11/18 06:22:20;;;;;;;;;;;;;;;8.60;100.00;99805.66;5058196;28;19917;-86
2022/11/18 06:24:45;;;;;;;;;;;;;;;8.61;100.00;99823.00;5058611;28;19908;-85
2022/11/18 06:27:11;;;;;;;;;;;;;;;8.59;100.00;99823.06;5038048;28;20151;-85
2022/11/18 06:29:36;;;;;;;;;;;;;;;8.58;100.00;99821.38;5058438;28;19920;-85
2022/11/18 06:32:02;;;;;;;;;;;;;;;8.58;100.00;99829.19;5041280;28;20181;-85
2022/11/18 06:34:27;;;;;;;;;;;;;;;8.58;100.00;99826.59;5041752;28;19913;-85
2022/11/18 06:36:55;;;;;;;;;;;;;;;8.58;100.00;99834.41;5041754;28;19986;-85
2022/11/18 06:39:20;;;;;;;;;;;;;;;8.58;100.00;99841.41;5055185;28;19939;-85
2022/11/18 06:41:45;;;;;;;;;;;;;;;8.58;100.00;99841.41;5058507;28;19921;-85
2022/11/18 06:44:11;;;;;;;;;;;;;;;8.56;100.00;99854.53;5037432;28;19959;-85
2022/11/18 06:46:55;;;;;;;;;;;;;;;8.57;100.00;99852.78;5058378;28;19977;-85
2022/11/18 06:49:20;;;;;;;;;;;;;;;8.56;100.00;99854.53;5033148;28;20174;-85
2022/11/18 06:51:46;;;;;;;;;;;;;;;8.56;100.00;99864.97;5068559;28;19915;-85
2022/11/18 06:54:11;;;;;;;;;;;;;;;8.55;100.00;99868.53;5057838;28;19940;-85
2022/11/18 06:56:36;;;;;;;;;;;;;;;8.54;100.00;99874.63;5058249;28;19992;-85
2022/11/18 06:59:02;;;;;;;;;;;;;;;8.53;100.00;99870.34;5041838;28;20236;-85
2022/11/18 07:01:28;;;;;;;;;;;;;;;8.54;100.00;99872.03;5058362;28;20236;-85
2022/11/18 07:03:54;;;;;;;;;;;;;;;8.53;100.00;99878.19;5059377;28;19917;-85
2022/11/18 07:06:21;;;;;;;;;;;;;;;8.52;100.00;99886.91;5057339;28;19916;-85
2022/11/18 07:08:46;;;;;;;;;;;;;;;8.52;100.00;99888.69;5058090;28;19956;-85
2022/11/18 07:11:13;;;;;;;;;;;;;;;8.52;100.00;99886.91;5058095;28;19924;-86
2022/11/18 07:13:38;;;;;;;;;;;;;;;8.51;100.00;99887.81;5057190;28;19988;-86
2022/11/18 07:16:04;;;;;;;;;;;;;;;8.51;100.00;99903.47;5058540;28;19909;-85
2022/11/18 07:18:31;;;;;;;;;;;;;;;8.49;100.00;99907.94;5057432;28;19984;-86
2022/11/18 07:20:56;;;;;;;;;;;;;;;8.50;100.00;99904.41;5040720;28;19979;-86
2022/11/18 07:23:21;;;;;;;;;;;;;;;8.51;100.00;99906.09;5057328;28;20357;-86
2022/11/18 07:25:47;;;;;;;;;;;;;;;8.50;100.00;99907.03;5040956;28;19947;-86
2022/11/18 07:28:12;;;;;;;;;;;;;;;8.50;100.00;99912.25;5057249;28;20208;-86
2022/11/18 07:30:37;;;;;;;;;;;;;;;8.51;100.00;99926.13;5041214;28;19913;-86
2022/11/18 07:33:05;;;;;;;;;;;;;;;8.51;100.00;99913.09;5056566;28;20288;-86
2022/11/18 07:35:31;;;;;;;;;;;;;;;8.51;100.00;99926.97;5041238;28;19913;-86
2022/11/18 07:37:56;;;;;;;;;;;;;;;8.51;100.00;99932.19;5057695;28;19909;-86
2022/11/18 07:40:22;;;;;;;;;;;;;;;8.52;100.00;99940.88;5040632;28;19935;-86
2022/11/18 07:42:47;;;;;;;;;;;;;;;8.52;100.00;99935.66;5040969;28;19931;-86
2022/11/18 07:45:12;;;;;;;;;;;;;;;8.52;100.00;99936.50;5057450;28;19928;-86
2022/11/18 07:47:38;;;;;;;;;;;;;;;8.52;100.00;99949.56;5057323;28;20311;-86
2022/11/18 07:50:04;;;;;;;;;;;;;;;8.52;100.00;99956.53;5058995;28;19916;-86
2022/11/18 07:52:29;;;;;;;;;;;;;;;8.52;100.00;99957.38;5057764;28;20108;-85
2022/11/18 07:54:54;;;;;;;;;;;;;;;8.52;100.00;99954.78;5058718;28;19923;-86
2022/11/18 07:57:19;;;;;;;;;;;;;;;8.54;100.00;99965.97;5054058;28;19917;-86
2022/11/18 07:59:45;;;;;;;;;;;;;;;8.54;100.00;99965.97;5048639;28;19917;-86
2022/11/18 08:02:11;;;;;;;;;;;;;;;8.54;100.00;99971.19;5047129;28;19928;-86
2022/11/18 08:04:36;;;;;;;;;;;;;;;8.54;100.00;99968.59;5042888;28;20295;-86
2022/11/18 08:07:01;;;;;;;;;;;;;;;8.56;100.00;99984.19;5045547;28;19925;-85
2022/11/18 08:09:27;;;;;;;;;;;;;;;8.56;100.00;99982.41;5061218;28;20032;-86
2022/11/18 08:11:52;;;;;;;;;;;;;;;8.57;100.00;99984.13;5046208;28;19912;-86
2022/11/18 08:14:17;;;;;;;;;;;;;;;8.57;100.00;99986.72;5045323;28;19921;-86
2022/11/18 08:16:43;;;;;;;;;;;;;;;8.57;100.00;99994.56;5044857;28;19912;-85
2022/11/18 08:19:08;;;;;;;;;;;;;;;8.58;100.00;99996.22;5046499;28;19924;-86
2022/11/18 08:21:33;;;;;;;;;;;;;;;8.58;100.00;99996.22;5028863;28;19927;-86
2022/11/18 08:23:59;;;;;;;;;;;;;;;8.60;100.00;100004.00;5063388;28;19917;-86
2022/11/18 08:26:24;;;;;;;;;;;;;;;8.61;100.00;100000.50;5061464;28;20220;-86
2022/11/18 08:28:49;;;;;;;;;;;;;;;8.59;100.00;100000.56;5045160;28;20289;-86
2022/11/18 08:31:19;;;;;;;;;;;;;;;8.60;100.00;100004.00;5055138;28;19932;-85
2022/11/18 08:33:44;;;;;;;;;;;;;;;8.61;100.00;100011.75;5045892;28;19985;-85
2022/11/18 08:36:14;;;;;;;;;;;;;;;8.61;100.00;100014.38;5037361;28;20094;-85
2022/11/18 08:38:40;;;;;;;;;;;;;;;8.60;100.00;100012.69;5036963;28;19916;-85
2022/11/18 08:41:06;;;;;;;;;;;;;;;8.63;100.00;100022.97;5035550;28;20160;-85
2022/11/18 08:43:32;;;;;;;;;;;;;;;8.64;100.00;100026.44;5067509;28;19958;-85
2022/11/18 08:45:57;;;;;;;;;;;;;;;8.64;100.00;100029.91;5055603;28;19967;-85
2022/11/18 08:48:22;;;;;;;;;;;;;;;8.64;100.00;100024.69;5055883;28;20298;-86
2022/11/18 08:50:48;;;;;;;;;;;;;;;8.65;100.00;100026.34;5032867;28;19920;-85
2022/11/18 08:53:14;;;;;;;;;;;;;;;8.67;100.00;100033.28;5057091;28;20110;-85
2022/11/18 08:55:39;;;;;;;;;;;;;;;8.68;100.00;100025.38;5056640;28;19963;-85
2022/11/18 08:58:04;;;;;;;;;;;;;;;8.68;100.00;100033.22;5057134;28;20229;-85
2022/11/18 09:00:30;;;;;;;;;;;;;;;8.68;100.00;100037.56;5055880;28;19982;-85
2022/11/18 09:02:55;;;;;;;;;;;;;;;8.70;100.00;100046.22;5056842;28;19928;-85
2022/11/18 09:05:20;;;;;;;;;;;;;;;8.69;100.00;100037.50;5057093;28;19951;-85
2022/11/18 09:07:45;;;;;;;;;;;;;;;8.71;100.00;100045.28;5055176;28;19928;-85
2022/11/18 09:10:11;;;;;;;;;;;;;;;8.71;100.00;100047.88;5055867;28;19921;-85
2022/11/18 09:12:36;;;;;;;;;;;;;;;8.72;100.00;100044.38;5055909;28;20000;-85
2022/11/18 09:15:05;;;;;;;;;;;;;;;8.71;100.00;100046.13;5057348;28;19941;-85
2022/11/18 09:17:30;;;;;;;;;;;;;;;8.73;100.00;100054.75;5053128;28;19908;-85
2022/11/18 09:19:55;;;;;;;;;;;;;;;8.72;100.00;100053.03;5067076;28;20499;-85
2022/11/18 09:22:21;;;;;;;;;;;;;;;8.74;100.00;100052.97;5050029;28;19920;-85
2022/11/18 09:24:48;;;;;;;;;;;;;;;8.74;100.00;100055.59;5048872;28;20120;-86
2022/11/18 09:27:13;;;;;;;;;;;;;;;8.75;100.00;100058.13;5037301;28;20138;-85
2022/11/18 09:29:38;;;;;;;;;;;;;;;8.76;100.00;100061.59;5056830;28;19920;-85
2022/11/18 09:32:04;;;;;;;;;;;;;;;8.77;100.00;100066.75;5058482;28;19913;-85
2022/11/18 09:34:29;;;;;;;;;;;;;;;8.79;100.00;100061.44;5067267;28;19909;-85
2022/11/18 09:36:55;;;;;;;;;;;;;;;8.77;100.00;100061.50;5066679;28;20456;-85
2022/11/18 09:39:24;;;;;;;;;;;;;;;8.81;100.00;100064.84;5059637;28;20143;-85
2022/11/18 09:41:58;;;;;;;;;;;;;;;8.80;100.00;100066.59;5059979;28;20201;-85
2022/11/18 09:44:26;;;;;;;;;;;;;;;8.80;100.00;100066.59;5060025;28;19917;-85
2022/11/18 09:47:00;;;;;;;;;;;;;;;8.82;100.00;100071.72;5048079;28;19909;-85
2022/11/18 09:49:30;;;;;;;;;;;;;;;8.82;100.00;100074.34;5054187;28;19908;-85
2022/11/18 09:51:56;;;;;;;;;;;;;;;8.85;100.00;100084.66;5057791;28;19920;-85
2022/11/18 09:54:26;;;;;;;;;;;;;;;8.86;100.00;100090.72;5058264;28;20147;-85
2022/11/18 09:56:52;;;;;;;;;;;;;;;8.86;100.00;100099.41;5059243;28;19924;-85
2022/11/18 09:59:19;;;;;;;;;;;;;;;8.87;100.00;100102.88;5059442;28;19909;-85
2022/11/18 10:01:45;;;;;;;;;;;;;;;8.87;100.00;100110.72;5055928;28;19916;-85
2022/11/18 10:04:15;;;;;;;;;;;;;;;8.89;100.00;100116.69;5060455;28;19929;-85
2022/11/18 10:06:40;;;;;;;;;;;;;;;8.90;100.00;100113.19;5056817;28;20321;-85
2022/11/18 10:09:05;;;;;;;;;;;;;;;8.91;100.00;100113.09;5050982;28;19928;-85
2022/11/18 10:11:40;;;;;;;;;;;;;;;8.91;100.00;100113.09;5059579;28;19978;-85
2022/11/18 10:14:24;;;;;;;;;;;;;;;8.92;100.00;100116.56;5057853;28;20249;-85
2022/11/18 10:16:52;;;;;;;;;;;;;;;8.93;100.00;100113.91;5059100;28;19917;-85
2022/11/18 10:19:36;;;;;;;;;;;;;;;8.95;100.00;100125.13;5074135;28;20211;-85
2022/11/18 10:22:05;;;;;;;;;;;;;;;8.96;100.00;100126.78;5054431;28;19921;-85
2022/11/18 10:24:41;;;;;;;;;;;;;;;8.97;100.00;100131.13;5038938;28;19920;-85
2022/11/18 10:27:11;;;;;;;;;;;;;;;8.98;100.00;100132.78;5036625;28;19925;-85
2022/11/18 10:29:37;;;;;;;;;;;;;;;9.00;100.00;100130.97;5042480;28;19921;-85
2022/11/18 10:32:03;;;;;;;;;;;;;;;9.00;100.00;100130.97;5047844;28;19925;-85
2022/11/18 10:34:29;;;;;;;;;;;;;;;9.02;100.00;100131.75;5058973;28;20007;-85
2022/11/18 10:37:21;;;;;;;;;;;;;;;9.05;100.00;100138.59;5045605;28;20016;-85
2022/11/18 10:39:51;;;;;;;;;;;;;;;9.06;100.00;100132.47;5040324;28;20127;-85
2022/11/18 10:42:22;;;;;;;;;;;;;;;9.07;100.00;100133.31;5071086;28;20219;-85
2022/11/18 10:44:47;;;;;;;;;;;;;;;9.08;100.00;100135.84;5058558;28;19923;-85
2022/11/18 10:47:15;;;;;;;;;;;;;;;9.09;100.00;100136.69;5043869;28;20140;-85
2022/11/18 10:49:40;;;;;;;;;;;;;;;9.10;100.00;100138.41;5054767;28;19920;-85
2022/11/18 10:52:09;;;;;;;;;;;;;;;9.12;100.00;100142.63;5042101;28;19921;-85
2022/11/18 10:54:34;;;;;;;;;;;;;;;9.13;100.00;100148.69;5057114;28;20231;-85
2022/11/18 10:57:20;;;;;;;;;;;;;;;9.13;100.00;100148.69;5056609;28;19913;-85
2022/11/18 10:59:47;;;;;;;;;;;;;;;9.13;100.00;100146.94;5058202;28;20026;-85
2022/11/18 11:02:24;;;;;;;;;;;;;;;9.14;100.00;100153.00;5058002;28;19975;-85
2022/11/18 11:04:50;;;;;;;;;;;;;;;9.14;100.00;100146.00;5058265;28;19929;-85
2022/11/18 11:07:33;;;;;;;;;;;;;;;9.15;100.00;100155.56;5039637;28;19940;-85
2022/11/18 11:10:05;;;;;;;;;;;;;;;9.16;100.00;100156.38;5057669;28;19920;-85
2022/11/18 11:12:31;;;;;;;;;;;;;;;9.16;100.00;100162.44;5073509;28;19923;-85
2022/11/18 11:15:00;;;;;;;;;;;;;;;9.18;100.00;100157.16;5057972;28;19921;-85
2022/11/18 11:17:34;;;;;;;;;;;;;;;9.19;100.00;100158.88;5058356;28;19915;-85
2022/11/18 11:20:06;;;;;;;;;;;;;;;9.20;100.00;100163.16;5057495;28;19917;-85
2022/11/18 11:22:31;;;;;;;;;;;;;;;9.21;100.00;100162.25;5049441;28;19924;-85
2022/11/18 11:24:56;;;;;;;;;;;;;;;9.22;100.00;100161.31;5037882;28;19941;-85
2022/11/18 11:27:27;;;;;;;;;;;;;;;9.22;100.00;100170.03;5048263;28;19921;-85
2022/11/18 11:29:58;;;;;;;;;;;;;;;9.24;100.00;100177.81;5057685;28;20139;-85
2022/11/18 11:32:39;;;;;;;;;;;;;;;9.25;100.00;100171.66;5058088;28;19916;-85
2022/11/18 11:35:07;;;;;;;;;;;;;;;9.25;100.00;100174.25;5071510;28;19921;-85
2022/11/18 11:37:36;;;;;;;;;;;;;;;9.27;100.00;100179.41;5054520;28;19920;-85
2022/11/18 11:40:01;;;;;;;;;;;;;;;9.28;100.00;100176.75;5057331;28;19927;-85
2022/11/18 11:42:33;;;;;;;;;;;;;;;9.27;100.00;100172.41;5073133;28;19920;-85
2022/11/18 11:45:01;;;;;;;;;;;;;;;9.29;100.00;100181.03;5056982;28;19952;-85
2022/11/18 11:47:45;;;;;;;;;;;;;;;9.29;100.00;100177.56;5057285;28;19916;-85
2022/11/18 11:50:11;;;;;;;;;;;;;;;9.31;100.00;100181.81;5057153;28;19921;-86
2022/11/18 11:52:39;;;;;;;;;;;;;;;9.31;100.00;100179.19;5057073;28;20009;-85
2022/11/18 11:55:17;;;;;;;;;;;;;;;9.33;100.00;100184.34;5057119;28;19909;-85
2022/11/18 11:58:01;;;;;;;;;;;;;;;9.34;100.00;100184.28;5057103;28;19917;-85
2022/11/18 12:00:27;;;;;;;;;;;;;;;9.34;100.00;100180.84;5072820;28;19909;-85
2022/11/18 12:03:02;;;;;;;;;;;;;;;9.36;100.00;100187.66;5056164;28;19920;-86
2022/11/18 12:05:34;;;;;;;;;;;;;;;9.36;100.00;100190.28;5072837;28;20282;-86
2022/11/18 12:08:01;;;;;;;;;;;;;;;9.37;100.00;100191.16;5052271;28;20141;-86
2022/11/18 12:10:42;;;;;;;;;;;;;;;9.38;100.00;100193.66;5053729;28;19963;-86
2022/11/18 12:13:26;;;;;;;;;;;;;;;9.38;100.00;100192.84;5053618;28;20147;-86
2022/11/18 12:16:07;;;;;;;;;;;;;;;9.39;100.00;100198.00;5070388;28;20147;-86
2022/11/18 12:18:32;;;;;;;;;;;;;;;9.39;100.00;100192.78;5038608;28;19909;-85
2022/11/18 12:21:00;;;;;;;;;;;;;;;9.38;100.00;100196.28;5044000;28;19928;-86
2022/11/18 12:24:01;;;;;;;;;;;;;;;9.38;100.00;100201.50;5054470;28;20071;-85
2022/11/18 12:26:33;;;;;;;;;;;;;;;9.39;100.00;100195.38;5039921;28;20169;-86
2022/11/18 12:29:19;;;;;;;;;;;;;;;9.40;100.00;100199.69;5047957;28;19924;-86
2022/11/18 12:31:45;;;;;;;;;;;;;;;9.41;100.00;100197.94;5060558;28;19920;-86
2022/11/18 12:34:34;;;;;;;;;;;;;;;9.42;100.00;100199.59;5051040;28;19939;-85
2022/11/18 12:37:31;;;;;;;;;;;;;;;9.43;100.00;100203.94;5041952;28;19921;-86
2022/11/18 12:39:58;;;;;;;;;;;;;;;9.44;100.00;100197.78;5040080;28;19912;-86
2022/11/18 12:45:47;;;;;;;;;;;;;;;9.46;100.00;100205.53;5052853;28;19924;-86
2022/11/18 12:48:31;;;;;;;;;;;;;;;9.45;100.00;100209.09;5055873;28;20227;-85
2022/11/18 12:51:00;;;;;;;;;;;;;;;9.45;100.00;100209.94;5076111;28;20179;-86
2022/11/18 12:53:46;;;;;;;;;;;;;;;9.46;100.00;100216.88;5059072;28;20212;-86
2022/11/18 12:56:22;;;;;;;;;;;;;;;9.47;100.00;100213.31;5044449;28;19917;-86
2022/11/18 12:58:52;;;;;;;;;;;;;;;9.47;100.00;100218.53;5048048;28;19945;-86